createdAt,value
2019-01-19T00:01:34.911Z,-0.58
2019-01-19T00:04:24.999Z,-0.79
2019-01-19T00:07:11.535Z,-0.83
2019-01-19T00:09:51.593Z,-0.85
2019-01-19T00:12:33.330Z,-0.77
2019-01-19T00:15:11.104Z,-0.82
2019-01-19T00:17:58.187Z,-0.77
2019-01-19T00:20:38.835Z,-0.93
2019-01-19T00:23:21.261Z,-0.85
2019-01-19T00:28:04.174Z,-0.69
2019-01-19T00:30:44.188Z,-0.66
2019-01-19T00:33:23.152Z,-0.67
2019-01-19T00:36:42.509Z,-0.77
2019-01-19T00:39:24.320Z,-0.73
2019-01-19T00:42:07.162Z,-0.71
2019-01-19T00:44:45.311Z,-0.71
2019-01-19T00:48:21.771Z,-0.60
2019-01-19T00:51:19.039Z,-0.59
2019-01-19T00:53:57.490Z,-0.59
2019-01-19T00:56:36.958Z,-0.77
2019-01-19T00:59:12.794Z,-0.69
2019-01-19T01:02:05.812Z,-0.67
2019-01-19T01:04:45.111Z,-0.77
2019-01-19T01:10:32.503Z,-0.79
2019-01-19T01:13:48.505Z,-0.77
2019-01-19T01:16:56.639Z,-0.76
2019-01-19T01:19:39.510Z,-0.89
2019-01-19T01:22:23.679Z,-0.97
2019-01-19T01:25:19.637Z,-1.02
2019-01-19T01:30:08.996Z,-1.16
2019-01-19T01:32:54.432Z,-1.30
2019-01-19T01:35:40.363Z,-1.33
2019-01-19T01:38:23.098Z,-1.23
2019-01-19T01:41:20.323Z,-1.24
2019-01-19T01:44:02.619Z,-1.31
2019-01-19T01:46:54.830Z,-1.38
2019-01-19T01:49:34.689Z,-1.56
2019-01-19T01:52:28.741Z,-1.45
2019-01-19T01:55:05.905Z,-1.62
2019-01-19T01:57:45.836Z,-1.60
2019-01-19T02:00:27.837Z,-1.46
2019-01-19T02:03:41.586Z,-1.46
2019-01-19T02:07:26.084Z,-1.37
2019-01-19T02:11:06.115Z,-1.34
2019-01-19T02:13:56.532Z,-1.39
2019-01-19T02:18:44.932Z,-1.50
2019-01-19T02:21:36.510Z,-1.55
2019-01-19T02:25:13.431Z,-1.53
2019-01-19T02:29:56.276Z,-1.73
2019-01-19T02:32:38.716Z,-1.52
2019-01-19T02:35:28.368Z,-1.62
2019-01-19T02:38:13.339Z,-1.58
2019-01-19T02:40:54.730Z,-1.51
2019-01-19T02:44:13.018Z,-1.89
2019-01-19T02:47:08.615Z,-1.96
2019-01-19T02:49:47.655Z,-1.90
2019-01-19T02:53:32.715Z,-1.73
2019-01-19T02:56:12.506Z,-1.69
2019-01-19T02:59:58.778Z,-1.64
2019-01-19T03:04:43.852Z,-1.64
2019-01-19T03:08:24.860Z,-1.93
2019-01-19T03:11:28.982Z,-1.97
2019-01-19T03:15:12.377Z,-1.93
2019-01-19T03:18:15.733Z,-1.97
2019-01-19T03:22:30.607Z,-1.87
2019-01-19T03:25:42.763Z,-1.86
2019-01-19T03:29:24.004Z,-1.67
2019-01-19T03:32:38.752Z,-1.50
2019-01-19T03:37:23.953Z,-1.52
2019-01-19T03:40:07.032Z,-1.62
2019-01-19T03:42:56.148Z,-1.63
2019-01-19T03:45:38.878Z,-1.68
2019-01-19T03:48:19.504Z,-1.68
2019-01-19T03:51:10.499Z,-1.61
2019-01-19T03:54:21.503Z,-1.38
2019-01-19T03:57:01.966Z,-1.46
2019-01-19T03:59:43.295Z,-1.49
2019-01-19T04:02:27.868Z,-1.35
2019-01-19T04:05:18.008Z,-1.33
2019-01-19T04:08:00.199Z,-1.42
2019-01-19T04:10:45.523Z,-1.46
2019-01-19T04:13:31.053Z,-1.49
2019-01-19T04:16:26.322Z,-1.47
2019-01-19T04:19:22.173Z,-1.46
2019-01-19T04:22:01.466Z,-1.52
2019-01-19T04:24:45.140Z,-1.54
2019-01-19T04:27:14.845Z,-1.57
2019-01-19T04:29:44.549Z,-1.53
2019-01-19T04:32:14.297Z,-1.57
2019-01-19T04:34:43.745Z,-1.63
2019-01-19T04:37:13.248Z,-1.67
2019-01-19T04:39:42.788Z,-1.78
2019-01-19T04:42:12.529Z,-1.74
2019-01-19T04:44:41.884Z,-1.76
2019-01-19T04:47:11.516Z,-2.00
2019-01-19T04:49:41.027Z,-2.19
2019-01-19T04:52:10.615Z,-2.11
2019-01-19T04:54:40.114Z,-2.12
2019-01-19T04:57:09.911Z,-1.99
2019-01-19T04:59:39.644Z,-2.01
2019-01-19T05:02:09.377Z,-1.98
2019-01-19T05:04:39.072Z,-1.95
2019-01-19T05:07:08.802Z,-1.80
2019-01-19T05:09:38.654Z,-1.85
2019-01-19T05:12:08.387Z,-1.72
2019-01-19T05:14:38.003Z,-1.93
2019-01-19T05:17:07.528Z,-1.88
2019-01-19T05:19:36.906Z,-1.87
2019-01-19T05:22:06.505Z,-1.97
2019-01-19T05:24:36.103Z,-1.94
2019-01-19T05:27:05.610Z,-1.94
2019-01-19T05:29:35.336Z,-1.96
2019-01-19T05:32:05.120Z,-2.00
2019-01-19T05:34:34.649Z,-1.95
2019-01-19T05:37:04.330Z,-1.98
2019-01-19T05:39:33.868Z,-1.93
2019-01-19T05:42:04.153Z,-1.98
2019-01-19T05:44:33.903Z,-1.94
2019-01-19T05:47:03.563Z,-1.88
2019-01-19T05:49:33.020Z,-1.74
2019-01-19T05:52:02.685Z,-1.87
2019-01-19T05:54:32.477Z,-1.90
2019-01-19T05:57:02.057Z,-2.02
2019-01-19T05:59:31.439Z,-1.91
2019-01-19T06:02:01.196Z,-1.82
2019-01-19T06:04:30.936Z,-1.84
2019-01-19T06:07:00.579Z,-1.92
2019-01-19T06:09:30.226Z,-1.91
2019-01-19T06:11:59.886Z,-1.98
2019-01-19T06:14:29.390Z,-1.85
2019-01-19T06:16:58.946Z,-1.87
2019-01-19T06:19:28.473Z,-1.72
2019-01-19T06:22:00.285Z,-1.75
2019-01-19T06:24:29.842Z,-1.76
2019-01-19T06:26:59.189Z,-1.78
2019-01-19T06:29:28.916Z,-1.73
2019-01-19T06:31:58.707Z,-1.72
2019-01-19T06:34:28.321Z,-1.68
2019-01-19T06:36:57.995Z,-1.71
2019-01-19T06:39:27.730Z,-1.75
2019-01-19T06:41:57.478Z,-1.75
2019-01-19T06:44:33.281Z,-1.92
2019-01-19T06:47:03.011Z,-1.79
2019-01-19T06:49:32.436Z,-1.75
2019-01-19T06:52:02.096Z,-1.79
2019-01-19T06:54:31.519Z,-1.66
2019-01-19T06:57:01.278Z,-1.43
2019-01-19T06:59:31.092Z,-1.42
2019-01-19T07:02:00.780Z,-1.39
2019-01-19T07:04:30.469Z,-1.35
2019-01-19T07:07:02.747Z,-1.36
2019-01-19T07:09:30.019Z,-1.25
2019-01-19T07:11:59.580Z,-1.21
2019-01-19T07:14:29.184Z,-1.21
2019-01-19T07:16:58.953Z,-1.10
2019-01-19T07:19:28.807Z,-1.00
2019-01-19T07:21:58.522Z,-1.00
2019-01-19T07:24:27.844Z,-0.92
2019-01-19T07:26:57.485Z,-0.90
2019-01-19T07:29:27.740Z,-0.87
2019-01-19T07:31:57.280Z,-0.76
2019-01-19T07:34:27.363Z,-0.73
2019-01-19T07:36:58.098Z,-0.76
2019-01-19T07:39:28.371Z,-0.76
2019-01-19T07:41:58.123Z,-0.60
2019-01-19T07:44:28.460Z,-0.55
2019-01-19T07:46:58.115Z,-0.53
2019-01-19T07:49:27.818Z,-0.37
2019-01-19T07:51:57.376Z,-0.32
2019-01-19T07:54:26.964Z,-0.26
2019-01-19T07:56:56.340Z,-0.31
2019-01-19T07:59:26.112Z,-0.26
2019-01-19T08:01:55.883Z,-0.12
2019-01-19T08:04:25.528Z,-0.03
2019-01-19T08:06:55.154Z,0.01
2019-01-19T08:09:24.533Z,0.06
2019-01-19T08:11:54.090Z,0.12
2019-01-19T08:14:24.119Z,0.14
2019-01-19T08:16:54.180Z,0.36
2019-01-19T08:19:23.847Z,0.51
2019-01-19T08:21:53.458Z,0.56
2019-01-19T08:24:22.964Z,0.61
2019-01-19T08:26:52.675Z,0.70
2019-01-19T08:29:22.432Z,0.69
2019-01-19T08:31:52.022Z,0.71
2019-01-19T08:34:21.696Z,0.74
2019-01-19T08:36:51.336Z,0.75
2019-01-19T08:39:20.975Z,0.66
2019-01-19T08:41:50.464Z,0.44
2019-01-19T08:44:20.239Z,0.37
2019-01-19T08:46:49.962Z,0.36
2019-01-19T08:49:19.579Z,0.24
2019-01-19T08:51:49.110Z,0.32
2019-01-19T08:54:18.762Z,0.31
2019-01-19T08:56:48.284Z,0.30
2019-01-19T08:59:18.020Z,0.53
2019-01-19T09:01:47.597Z,0.52
2019-01-19T09:04:17.081Z,0.56
2019-01-19T09:06:46.835Z,0.47
2019-01-19T09:09:16.407Z,0.70
2019-01-19T09:11:45.901Z,0.77
2019-01-19T09:14:15.849Z,1.01
2019-01-19T09:16:45.569Z,1.10
2019-01-19T09:19:15.268Z,1.33
2019-01-19T09:21:45.262Z,1.37
2019-01-19T09:24:19.893Z,1.48
2019-01-19T09:26:49.611Z,1.62
2019-01-19T09:29:19.062Z,1.64
2019-01-19T09:31:48.827Z,1.98
2019-01-19T09:34:18.422Z,1.84
2019-01-19T09:36:48.236Z,1.93
2019-01-19T09:39:20.773Z,2.01
2019-01-19T09:41:51.663Z,2.25
2019-01-19T09:44:21.389Z,2.63
2019-01-19T09:46:50.972Z,2.57
2019-01-19T09:49:20.994Z,2.69
2019-01-19T09:51:50.759Z,2.80
2019-01-19T09:54:20.127Z,2.83
2019-01-19T09:56:49.883Z,2.82
2019-01-19T09:59:19.509Z,3.10
2019-01-19T10:01:49.299Z,3.22
2019-01-19T10:04:19.012Z,3.34
2019-01-19T10:06:48.786Z,3.32
2019-01-19T10:09:18.559Z,3.31
2019-01-19T10:11:48.323Z,3.29
2019-01-19T10:14:18.432Z,3.25
2019-01-19T10:16:48.551Z,3.19
2019-01-19T10:19:18.277Z,3.27
2019-01-19T10:21:48.000Z,3.22
2019-01-19T10:24:17.692Z,3.13
2019-01-19T10:26:47.403Z,3.42
2019-01-19T10:29:17.075Z,3.31
2019-01-19T10:31:46.735Z,3.33
2019-01-19T10:34:16.457Z,3.34
2019-01-19T10:36:46.043Z,3.20
2019-01-19T10:39:15.783Z,3.17
2019-01-19T10:41:45.374Z,3.08
2019-01-19T10:44:15.124Z,3.15
2019-01-19T10:46:44.804Z,3.30
2019-01-19T10:49:14.558Z,3.21
2019-01-19T10:51:44.323Z,3.19
2019-01-19T10:54:13.779Z,3.19
2019-01-19T10:56:43.633Z,3.12
2019-01-19T10:59:13.105Z,3.16
2019-01-19T11:01:42.907Z,3.27
2019-01-19T11:04:12.735Z,3.19
2019-01-19T11:06:42.679Z,3.21
2019-01-19T11:09:12.273Z,3.16
2019-01-19T11:11:42.173Z,3.37
2019-01-19T11:14:11.554Z,3.91
2019-01-19T11:16:40.920Z,4.41
2019-01-19T11:19:10.435Z,4.69
2019-01-19T11:21:40.601Z,4.99
2019-01-19T11:24:10.310Z,5.18
2019-01-19T11:26:40.825Z,5.51
2019-01-19T11:29:10.583Z,5.64
2019-01-19T11:31:40.019Z,5.80
2019-01-19T11:34:09.740Z,5.61
2019-01-19T11:36:39.495Z,5.50
2019-01-19T11:39:09.324Z,5.52
2019-01-19T11:41:39.236Z,5.31
2019-01-19T11:44:09.076Z,5.03
2019-01-19T11:46:38.847Z,4.83
2019-01-19T11:49:08.571Z,4.64
2019-01-19T11:51:38.264Z,4.54
2019-01-19T11:54:08.039Z,4.46
2019-01-19T11:56:37.588Z,4.36
2019-01-19T11:59:06.924Z,4.32
2019-01-19T12:01:36.603Z,4.05
2019-01-19T12:04:06.362Z,3.81
2019-01-19T12:06:36.120Z,3.95
2019-01-19T12:09:07.580Z,3.99
2019-01-19T12:11:37.260Z,4.04
2019-01-19T12:14:06.979Z,4.04
2019-01-19T12:16:36.656Z,4.11
2019-01-19T12:19:06.298Z,4.22
2019-01-19T12:21:35.849Z,4.34
2019-01-19T12:24:05.706Z,4.35
2019-01-19T12:26:35.114Z,4.34
2019-01-19T12:29:04.884Z,4.51
2019-01-19T12:31:34.599Z,4.57
2019-01-19T12:34:04.294Z,4.42
2019-01-19T12:36:33.658Z,4.66
2019-01-19T12:39:03.668Z,4.62
2019-01-19T12:41:33.279Z,4.46
2019-01-19T12:44:02.761Z,4.37
2019-01-19T12:46:32.440Z,4.43
2019-01-19T12:49:02.243Z,4.55
2019-01-19T12:51:31.954Z,4.62
2019-01-19T12:54:01.557Z,4.66
2019-01-19T12:56:31.042Z,4.78
2019-01-19T12:59:00.776Z,4.70
2019-01-19T13:01:30.427Z,4.74
2019-01-19T13:03:59.967Z,4.76
2019-01-19T13:06:41.398Z,4.75
2019-01-19T13:09:16.444Z,4.66
2019-01-19T13:12:25.381Z,4.53
2019-01-19T13:15:40.479Z,4.42
2019-01-19T13:18:34.958Z,4.37
2019-01-19T13:21:33.257Z,4.39
2019-01-19T13:24:11.511Z,4.33
2019-01-19T13:26:55.544Z,4.24
2019-01-19T13:29:35.917Z,4.22
2019-01-19T13:32:45.470Z,4.25
2019-01-19T13:36:58.143Z,4.32
2019-01-19T13:39:35.248Z,4.28
2019-01-19T13:43:20.136Z,4.33
2019-01-19T13:45:55.753Z,4.37
2019-01-19T13:49:06.351Z,4.39
2019-01-19T13:51:43.040Z,4.37
2019-01-19T13:54:29.806Z,4.42
2019-01-19T13:58:17.691Z,4.61
2019-01-19T14:00:57.990Z,4.65
2019-01-19T14:04:23.671Z,4.75
2019-01-19T14:07:14.066Z,4.97
2019-01-19T14:10:00.669Z,5.01
2019-01-19T14:12:49.087Z,5.16
2019-01-19T14:16:27.891Z,5.93
2019-01-19T14:19:09.914Z,6.40
2019-01-19T14:23:54.000Z,6.21
2019-01-19T14:26:37.559Z,5.55
2019-01-19T14:29:34.854Z,5.30
2019-01-19T14:32:19.484Z,5.01
2019-01-19T14:35:04.356Z,5.09
2019-01-19T14:38:19.267Z,4.79
2019-01-19T14:40:59.149Z,4.63
2019-01-19T14:44:39.023Z,4.51
2019-01-19T14:47:18.340Z,4.30
2019-01-19T14:50:01.541Z,4.13
2019-01-19T14:52:39.355Z,4.06
2019-01-19T14:57:23.738Z,3.91
2019-01-19T15:00:05.325Z,3.89
2019-01-19T15:04:49.283Z,3.80
2019-01-19T15:07:37.379Z,3.76
2019-01-19T15:10:48.760Z,3.75
2019-01-19T15:15:42.572Z,3.67
2019-01-19T15:18:25.478Z,3.54
2019-01-19T15:21:43.490Z,3.45
2019-01-19T15:25:22.415Z,3.34
2019-01-19T15:28:25.650Z,3.18
2019-01-19T15:31:13.422Z,3.09
2019-01-19T15:35:56.525Z,3.06
2019-01-19T15:40:40.088Z,2.89
2019-01-19T15:43:26.159Z,2.84
2019-01-19T15:46:40.582Z,2.83
2019-01-19T15:51:32.486Z,2.72
2019-01-19T15:54:12.439Z,2.67
2019-01-19T15:56:59.104Z,2.70
2019-01-19T16:00:40.131Z,2.69
2019-01-19T16:03:27.574Z,2.52
2019-01-19T16:06:08.734Z,2.60
2019-01-19T16:08:51.246Z,2.70
2019-01-19T16:12:34.740Z,2.68
2019-01-19T16:15:31.129Z,2.75
2019-01-19T16:18:10.482Z,2.77
2019-01-19T16:20:53.213Z,2.77
2019-01-19T16:23:40.305Z,2.54
2019-01-19T16:26:25.496Z,2.44
2019-01-19T16:29:38.431Z,2.53
2019-01-19T16:32:28.657Z,2.54
2019-01-19T16:35:59.121Z,2.60
2019-01-19T16:38:43.199Z,2.33
2019-01-19T16:41:39.750Z,2.15
2019-01-19T16:46:31.471Z,2.33
2019-01-19T16:49:08.915Z,2.38
2019-01-19T16:52:25.157Z,2.40
2019-01-19T16:55:25.280Z,2.43
2019-01-19T16:58:05.817Z,2.34
2019-01-19T17:02:48.527Z,2.39
2019-01-19T17:05:28.711Z,2.53
2019-01-19T17:08:25.749Z,2.69
2019-01-19T17:12:22.640Z,2.67
2019-01-19T17:15:06.465Z,2.82
2019-01-19T17:17:55.744Z,2.87
2019-01-19T17:20:43.395Z,3.00
2019-01-19T17:23:57.415Z,3.02
2019-01-19T17:26:44.861Z,3.12
2019-01-19T17:29:25.688Z,3.17
2019-01-19T17:32:12.030Z,3.18
2019-01-19T17:35:09.249Z,3.23
2019-01-19T17:37:44.343Z,3.21
2019-01-19T17:40:56.424Z,3.22
2019-01-19T17:43:38.421Z,3.25
2019-01-19T17:46:26.688Z,7.39
2019-01-19T17:49:13.938Z,11.57
2019-01-19T17:52:51.282Z,9.58
2019-01-19T17:55:31.580Z,8.76
2019-01-19T17:58:22.741Z,9.07
2019-01-19T18:01:01.968Z,9.76
2019-01-19T18:03:46.361Z,10.85
2019-01-19T18:06:39.859Z,12.64
2019-01-19T18:09:47.363Z,11.87
2019-01-19T18:12:41.855Z,13.70
2019-01-19T18:15:25.942Z,14.68
2019-01-19T18:18:05.359Z,12.35
2019-01-19T18:23:54.751Z,10.78
2019-01-19T18:26:34.544Z,10.97
2019-01-19T18:29:15.604Z,10.57
2019-01-19T18:33:04.779Z,13.01
2019-01-19T18:38:53.045Z,11.60
2019-01-19T18:41:31.666Z,11.48
2019-01-19T18:44:37.973Z,14.20
2019-01-19T18:47:48.598Z,11.93
2019-01-19T18:51:28.705Z,9.28
2019-01-19T18:54:10.187Z,7.64
2019-01-19T18:59:01.990Z,6.68
2019-01-19T19:01:51.170Z,5.53
2019-01-19T19:06:37.604Z,5.07
2019-01-19T19:09:26.617Z,4.64
2019-01-19T19:12:06.248Z,4.54
2019-01-19T19:14:45.835Z,4.34
2019-01-19T19:17:29.818Z,4.29
2019-01-19T19:20:27.611Z,4.03
2019-01-19T19:23:32.283Z,4.00
2019-01-19T19:26:48.117Z,3.86
2019-01-19T19:29:53.612Z,3.80
2019-01-19T19:33:24.332Z,3.80
2019-01-19T19:36:05.928Z,3.71
2019-01-19T19:38:53.064Z,3.60
2019-01-19T19:41:35.244Z,3.62
2019-01-19T19:44:27.445Z,3.58
2019-01-19T19:47:13.651Z,3.44
2019-01-19T19:50:01.443Z,3.43
2019-01-19T19:52:31.174Z,3.34
2019-01-19T19:54:59.281Z,3.33
2019-01-19T19:57:29.824Z,3.80
2019-01-19T19:59:59.397Z,3.46
2019-01-19T20:02:29.248Z,3.37
2019-01-19T20:04:59.967Z,3.33
2019-01-19T20:07:29.537Z,3.28
2019-01-19T20:09:59.707Z,3.08
2019-01-19T20:12:31.307Z,3.07
2019-01-19T20:15:00.791Z,2.97
2019-01-19T20:17:30.467Z,2.93
2019-01-19T20:20:02.125Z,2.94
2019-01-19T20:22:31.975Z,3.00
2019-01-19T20:25:07.971Z,3.02
2019-01-19T20:27:37.541Z,2.96
2019-01-19T20:30:08.700Z,2.92
2019-01-19T20:32:38.515Z,2.89
2019-01-19T20:35:08.634Z,2.83
2019-01-19T20:37:38.369Z,2.73
2019-01-19T20:40:08.359Z,2.81
2019-01-19T20:42:37.861Z,2.82
2019-01-19T20:45:08.894Z,2.81
2019-01-19T20:47:38.659Z,2.85
2019-01-19T20:50:09.747Z,2.88
2019-01-19T20:52:39.407Z,2.87
2019-01-19T20:55:09.923Z,2.82
2019-01-19T20:57:39.857Z,2.81
2019-01-19T21:00:12.239Z,2.83
2019-01-19T21:02:41.780Z,2.75
2019-01-19T21:05:11.548Z,2.76
2019-01-19T21:07:41.228Z,2.64
2019-01-19T21:10:11.050Z,2.80
2019-01-19T21:12:41.124Z,2.80
2019-01-19T21:15:12.183Z,2.82
2019-01-19T21:17:41.831Z,2.84
2019-01-19T21:20:12.419Z,2.78
2019-01-19T21:22:43.983Z,2.72
2019-01-19T21:25:13.691Z,2.75
2019-01-19T21:27:43.483Z,2.79
2019-01-19T21:30:13.491Z,2.75
2019-01-19T21:32:42.957Z,2.75
2019-01-19T21:35:14.816Z,2.81
2019-01-19T21:37:44.624Z,2.81
2019-01-19T21:40:14.312Z,2.71
2019-01-19T21:42:44.023Z,2.77
2019-01-19T21:45:16.899Z,2.83
2019-01-19T21:47:46.364Z,2.83
2019-01-19T21:50:15.876Z,2.86
2019-01-19T21:52:45.495Z,2.85
2019-01-19T21:55:15.192Z,2.85
2019-01-19T21:57:44.741Z,2.83
2019-01-19T22:00:16.031Z,2.84
2019-01-19T22:02:45.590Z,2.86
2019-01-19T22:05:16.443Z,2.78
2019-01-19T22:07:46.444Z,2.74
2019-01-19T22:10:17.827Z,2.81
2019-01-19T22:12:47.630Z,2.83
2019-01-19T22:15:18.302Z,2.89
2019-01-19T22:17:48.246Z,2.88
2019-01-19T22:20:18.276Z,2.83
2019-01-19T22:22:48.185Z,2.74
2019-01-19T22:25:18.295Z,2.62
2019-01-19T22:27:49.114Z,2.63
2019-01-19T22:30:22.181Z,2.71
2019-01-19T22:32:53.590Z,2.67
2019-01-19T22:35:25.024Z,2.64
2019-01-19T22:37:54.957Z,2.62
2019-01-19T22:40:24.767Z,2.61
2019-01-19T22:42:58.031Z,2.59
2019-01-19T22:45:28.079Z,2.50
2019-01-19T22:47:57.907Z,2.43
2019-01-19T22:50:27.777Z,2.39
2019-01-19T22:52:57.704Z,2.44
2019-01-19T22:55:27.620Z,2.46
2019-01-19T22:57:58.446Z,2.51
2019-01-19T23:02:39.773Z,2.52
2019-01-19T23:05:09.721Z,2.46
2019-01-19T23:07:39.488Z,2.50
2019-01-19T23:10:09.540Z,2.51
2019-01-19T23:12:39.645Z,2.58
2019-01-19T23:15:09.847Z,2.47
2019-01-19T23:17:39.703Z,2.39
2019-01-19T23:20:09.848Z,2.46
2019-01-19T23:22:39.798Z,2.51
2019-01-19T23:25:09.796Z,2.45
2019-01-19T23:27:39.799Z,2.48
2019-01-19T23:30:10.235Z,2.50
2019-01-19T23:32:39.952Z,2.52
2019-01-19T23:35:09.560Z,2.49
2019-01-19T23:37:39.121Z,2.36
2019-01-19T23:40:08.811Z,2.42
2019-01-19T23:42:38.485Z,2.46
2019-01-19T23:45:08.211Z,2.44
2019-01-19T23:47:37.922Z,2.41
2019-01-19T23:50:07.791Z,2.37
2019-01-19T23:52:37.288Z,2.43
2019-01-19T23:55:06.926Z,2.37
2019-01-19T23:57:36.530Z,2.33
